Terminal Aerodrome Forecast
Issued by NWS

Home | Current Version | Previous Version | Text Only | Print | Product List | Glossary On
Versions: 1 2 3 4 5 6 7 8 9 10 11 12 13 14 15 16 17 18 19 20 21
000
FTUS45 KABQ 292144 AAA
TAFSAF
TAF AMD
KSAF 292144Z 2922/3018 36011KT P6SM SCT025 BKN070
     FM300600 VRB05KT 2SM BR OVC009
     FM301300 35010KT P6SM FEW009 SCT025
     FM301500 32015G23KT P6SM FEW250=

USA.gov is the U.S. government's official web portal to all federal, state and local government web resources and services.